createdAt,value
2018-07-01T00:00:29.645Z,55.60
2018-07-01T00:01:29.603Z,55.69
2018-07-01T00:02:29.551Z,55.99
2018-07-01T00:03:29.530Z,54.16
2018-07-01T00:04:29.463Z,54.25
2018-07-01T00:05:29.414Z,55.02
2018-07-01T00:06:29.369Z,56.46
2018-07-01T00:07:29.324Z,54.83
2018-07-01T00:08:29.315Z,55.12
2018-07-01T00:09:29.229Z,54.93
2018-07-01T00:10:29.185Z,55.41
2018-07-01T00:11:29.139Z,56.95
2018-07-01T00:12:29.090Z,56.56
2018-07-01T00:13:29.041Z,56.95
2018-07-01T00:14:29.022Z,56.95
2018-07-01T00:15:28.950Z,55.41
2018-07-01T00:16:28.903Z,56.08
2018-07-01T00:17:28.861Z,55.51
2018-07-01T00:18:28.813Z,55.51
2018-07-01T00:19:28.788Z,55.60
2018-07-01T00:20:28.721Z,56.27
2018-07-01T00:21:28.678Z,55.51
2018-07-01T00:22:28.630Z,56.76
2018-07-01T00:23:28.584Z,55.79
2018-07-01T00:24:28.558Z,55.47
2018-07-01T00:25:28.487Z,57.01
2018-07-01T00:26:28.444Z,56.82
2018-07-01T00:27:28.396Z,58.36
2018-07-01T00:28:28.348Z,57.97
2018-07-01T00:29:28.333Z,58.94
2018-07-01T00:30:28.257Z,57.88
2018-07-01T00:31:28.211Z,56.82
2018-07-01T00:32:28.165Z,56.92
2018-07-01T00:33:28.118Z,55.47
2018-07-01T00:34:28.094Z,56.24
2018-07-01T00:35:28.024Z,58.17
2018-07-01T00:36:27.978Z,56.44
2018-07-01T00:37:27.934Z,55.29
2018-07-01T00:38:27.887Z,56.44
2018-07-01T00:39:27.861Z,57.01
2018-07-01T00:40:27.808Z,56.53
2018-07-01T00:41:27.746Z,56.82
2018-07-01T00:42:27.698Z,57.50
2018-07-01T00:43:27.656Z,56.82
2018-07-01T00:44:27.628Z,56.24
2018-07-01T00:45:27.557Z,56.44
2018-07-01T00:46:27.515Z,58.45
2018-07-01T00:47:27.470Z,56.82
2018-07-01T00:48:27.424Z,56.92
2018-07-01T00:49:27.403Z,55.57
2018-07-01T00:50:27.325Z,55.47
2018-07-01T00:51:27.281Z,55.00
2018-07-01T00:52:27.235Z,54.33
2018-07-01T00:53:27.187Z,55.38
2018-07-01T00:54:27.164Z,56.24
2018-07-01T00:55:27.092Z,57.11
2018-07-01T00:56:27.046Z,56.24
2018-07-01T00:57:27.007Z,55.47
2018-07-01T00:58:26.954Z,55.86
2018-07-01T00:59:34.146Z,56.73
2018-07-01T01:00:26.865Z,55.86
2018-07-01T01:01:26.814Z,54.80
2018-07-01T01:02:26.811Z,56.05
2018-07-01T01:03:26.722Z,55.00
2018-07-01T01:04:26.699Z,55.86
2018-07-01T01:05:26.628Z,55.96
2018-07-01T01:06:26.582Z,56.53
2018-07-01T01:07:26.536Z,57.68
2018-07-01T01:08:26.490Z,56.73
2018-07-01T01:09:26.465Z,58.36
2018-07-01T01:10:26.397Z,58.74
2018-07-01T01:11:26.378Z,57.97
2018-07-01T01:12:26.305Z,56.73
2018-07-01T01:13:26.257Z,57.11
2018-07-01T01:14:26.232Z,58.55
2018-07-01T01:15:26.162Z,58.07
2018-07-01T01:16:26.119Z,56.34
2018-07-01T01:17:26.073Z,57.11
2018-07-01T01:18:26.029Z,57.59
2018-07-01T01:19:25.999Z,59.41
2018-07-01T01:20:25.933Z,57.50
2018-07-01T01:21:25.883Z,58.36
2018-07-01T01:22:25.837Z,59.32
2018-07-01T01:23:25.790Z,58.07
2018-07-01T01:24:25.767Z,57.50
2018-07-01T01:25:25.704Z,57.50
2018-07-01T01:26:25.652Z,56.05
2018-07-01T01:27:25.612Z,56.82
2018-07-01T01:28:25.563Z,58.94
2018-07-01T01:29:25.536Z,58.36
2018-07-01T01:30:25.476Z,58.36
2018-07-01T01:31:25.419Z,57.40
2018-07-01T01:32:25.372Z,58.45
2018-07-01T01:33:25.324Z,56.82
2018-07-01T01:34:25.306Z,57.11
2018-07-01T01:35:25.235Z,58.07
2018-07-01T01:36:25.184Z,59.99
2018-07-01T01:37:25.149Z,59.80
2018-07-01T01:38:25.095Z,58.55
2018-07-01T01:39:25.045Z,57.65
2018-07-01T01:40:25.020Z,58.64
2018-07-01T01:41:24.949Z,59.86
2018-07-01T01:42:24.908Z,59.19
2018-07-01T01:43:24.860Z,59.86
2018-07-01T01:44:24.813Z,61.30
2018-07-01T01:45:24.795Z,59.77
2018-07-01T01:46:24.723Z,59.29
2018-07-01T01:47:24.672Z,58.62
2018-07-01T01:48:24.625Z,58.91
2018-07-01T01:49:24.580Z,59.77
2018-07-01T01:50:24.557Z,59.77
2018-07-01T01:51:24.484Z,60.44
2018-07-01T01:52:24.442Z,57.95
2018-07-01T01:53:24.393Z,57.65
2018-07-01T01:54:24.347Z,59.58
2018-07-01T01:55:24.323Z,58.42
2018-07-01T01:56:24.255Z,59.09
2018-07-01T01:57:24.207Z,59.09
2018-07-01T01:58:24.157Z,59.67
2018-07-01T01:59:24.121Z,61.69
2018-07-01T02:00:24.102Z,61.02
2018-07-01T02:01:24.020Z,60.44
2018-07-01T02:02:23.979Z,59.48
2018-07-01T02:03:23.931Z,61.11
2018-07-01T02:04:23.884Z,61.11
2018-07-01T02:05:23.857Z,59.36
2018-07-01T02:06:23.784Z,59.45
2018-07-01T02:07:23.738Z,59.96
2018-07-01T02:08:23.693Z,60.35
2018-07-01T02:09:23.646Z,60.03
2018-07-01T02:10:23.625Z,61.18
2018-07-01T02:11:23.558Z,61.59
2018-07-01T02:12:23.505Z,60.60
2018-07-01T02:13:23.473Z,60.41
2018-07-01T02:14:23.416Z,61.08
2018-07-01T02:15:23.409Z,62.23
2018-07-01T02:16:23.320Z,61.46
2018-07-01T02:17:23.271Z,61.46
2018-07-01T02:18:23.225Z,61.27
2018-07-01T02:19:23.174Z,60.89
2018-07-01T02:20:23.135Z,60.70
2018-07-01T02:21:23.108Z,60.41
2018-07-01T02:22:23.042Z,61.18
2018-07-01T02:23:22.999Z,61.18
2018-07-01T02:24:22.950Z,61.37
2018-07-01T02:25:22.897Z,60.89
2018-07-01T02:26:22.873Z,60.99
2018-07-01T02:27:22.803Z,61.08
2018-07-01T02:28:22.757Z,61.18
2018-07-01T02:29:22.711Z,62.33
2018-07-01T02:30:22.664Z,60.99
2018-07-01T02:31:22.647Z,61.27
2018-07-01T02:32:22.571Z,61.75
2018-07-01T02:33:22.521Z,61.46
2018-07-01T02:34:22.475Z,61.18
2018-07-01T02:35:22.471Z,61.18
2018-07-01T02:36:22.406Z,62.23
2018-07-01T02:37:22.337Z,61.18
2018-07-01T02:38:22.287Z,60.99
2018-07-01T02:39:22.240Z,62.90
2018-07-01T02:40:22.196Z,62.62
2018-07-01T02:41:22.171Z,62.71
2018-07-01T02:42:22.101Z,64.15
2018-07-01T02:43:22.054Z,62.62
2018-07-01T02:44:22.010Z,63.73
2018-07-01T02:45:21.974Z,63.86
2018-07-01T02:46:21.937Z,63.19
2018-07-01T02:47:21.868Z,62.30
2018-07-01T02:48:21.817Z,62.23
2018-07-01T02:49:21.771Z,62.42
2018-07-01T02:50:21.726Z,62.62
2018-07-01T02:51:21.702Z,62.81
2018-07-01T02:52:21.633Z,62.52
2018-07-01T02:53:21.583Z,64.22
2018-07-01T02:54:21.540Z,64.02
2018-07-01T02:55:21.491Z,62.39
2018-07-01T02:56:21.468Z,63.54
2018-07-01T02:57:21.395Z,63.54
2018-07-01T02:58:21.350Z,63.64
2018-07-01T02:59:21.305Z,63.76
2018-07-01T03:00:21.255Z,63.45
2018-07-01T03:01:21.233Z,63.64
2018-07-01T03:02:21.167Z,64.12
2018-07-01T03:03:21.117Z,65.17
2018-07-01T03:04:21.066Z,64.12
2018-07-01T03:05:21.023Z,64.69
2018-07-01T03:06:20.998Z,63.92
2018-07-01T03:07:20.925Z,64.22
2018-07-01T03:08:20.881Z,64.12
2018-07-01T03:09:20.831Z,64.12
2018-07-01T03:10:20.786Z,65.08
2018-07-01T03:11:20.761Z,63.83
2018-07-01T03:12:20.692Z,63.64
2018-07-01T03:13:20.644Z,62.59
2018-07-01T03:14:20.597Z,62.77
2018-07-01T03:15:20.553Z,62.96
2018-07-01T03:16:20.529Z,63.35
2018-07-01T03:17:20.461Z,63.73
2018-07-01T03:18:20.409Z,65.55
2018-07-01T03:19:20.362Z,65.14
2018-07-01T03:20:20.313Z,65.36
2018-07-01T03:21:20.289Z,64.79
2018-07-01T03:22:20.226Z,63.73
2018-07-01T03:23:20.173Z,64.22
2018-07-01T03:24:20.130Z,64.22
2018-07-01T03:25:20.083Z,64.22
2018-07-01T03:26:20.055Z,64.59
2018-07-01T03:27:19.987Z,64.98
2018-07-01T03:28:19.936Z,64.98
2018-07-01T03:29:19.890Z,64.79
2018-07-01T03:30:19.844Z,65.26
2018-07-01T03:31:19.822Z,65.46
2018-07-01T03:32:19.767Z,65.08
2018-07-01T03:33:19.702Z,64.22
2018-07-01T03:34:19.656Z,64.37
2018-07-01T03:35:19.607Z,65.14
2018-07-01T03:36:19.564Z,65.23
2018-07-01T03:37:19.549Z,64.76
2018-07-01T03:38:19.466Z,65.05
2018-07-01T03:39:19.419Z,65.33
2018-07-01T03:40:19.370Z,64.76
2018-07-01T03:41:26.486Z,62.93
2018-07-01T03:42:19.277Z,63.32
2018-07-01T03:43:19.226Z,63.54
2018-07-01T03:44:19.184Z,64.40
2018-07-01T03:45:19.133Z,66.29
2018-07-01T03:46:19.091Z,64.85
2018-07-01T03:47:19.066Z,66.29
2018-07-01T03:48:18.995Z,66.09
2018-07-01T03:49:18.949Z,66.19
2018-07-01T03:50:18.981Z,66.77
2018-07-01T03:51:18.852Z,67.34
2018-07-01T03:52:18.824Z,67.63
2018-07-01T03:53:18.754Z,67.72
2018-07-01T03:54:18.713Z,66.77
2018-07-01T03:55:18.664Z,67.34
2018-07-01T03:56:18.616Z,64.09
2018-07-01T03:57:18.590Z,66.19
2018-07-01T03:58:18.520Z,66.38
2018-07-01T03:59:18.480Z,67.72
2018-07-01T04:00:18.449Z,66.58
2018-07-01T04:01:18.378Z,67.25
2018-07-01T04:02:18.353Z,66.67
2018-07-01T04:03:18.284Z,66.38
2018-07-01T04:04:18.239Z,66.09
2018-07-01T04:05:18.192Z,66.86
2018-07-01T04:06:18.143Z,68.21
2018-07-01T04:07:18.119Z,66.38
2018-07-01T04:08:18.049Z,65.23
2018-07-01T04:09:18.000Z,66.29
2018-07-01T04:10:17.993Z,66.38
2018-07-01T04:11:17.907Z,65.36
2018-07-01T04:12:17.883Z,66.80
2018-07-01T04:13:17.818Z,66.51
2018-07-01T04:14:17.762Z,64.40
2018-07-01T04:15:17.718Z,66.32
2018-07-01T04:16:17.671Z,66.89
2018-07-01T04:17:17.647Z,63.92
2018-07-01T04:18:17.576Z,64.22
2018-07-01T04:19:17.530Z,64.59
2018-07-01T04:20:17.499Z,65.36
2018-07-01T04:21:17.442Z,65.36
2018-07-01T04:22:17.411Z,67.66
2018-07-01T04:23:17.357Z,66.03
2018-07-01T04:24:17.298Z,65.68
2018-07-01T04:25:17.246Z,64.82
2018-07-01T04:26:17.207Z,64.15
2018-07-01T04:27:17.175Z,65.11
2018-07-01T04:28:17.105Z,64.82
2018-07-01T04:29:17.059Z,64.15
2018-07-01T04:30:17.013Z,64.28
2018-07-01T04:31:16.967Z,65.14
2018-07-01T04:32:16.943Z,64.47
2018-07-01T04:33:16.874Z,63.99
2018-07-01T04:34:16.823Z,61.30
2018-07-01T04:35:16.774Z,61.49
2018-07-01T04:36:16.735Z,62.84
2018-07-01T04:37:16.709Z,62.58
2018-07-01T04:38:16.640Z,61.81
2018-07-01T04:39:16.595Z,62.01
2018-07-01T04:40:16.544Z,61.91
2018-07-01T04:41:16.496Z,60.57
2018-07-01T04:42:16.473Z,59.99
2018-07-01T04:43:16.410Z,59.12
2018-07-01T04:44:16.356Z,62.19
2018-07-01T04:45:16.314Z,60.75
2018-07-01T04:46:16.268Z,60.85
2018-07-01T04:47:16.243Z,60.85
2018-07-01T04:48:16.173Z,59.34
2018-07-01T04:49:16.155Z,59.92
2018-07-01T04:50:16.085Z,60.88
2018-07-01T04:51:16.036Z,59.73
2018-07-01T04:52:16.015Z,60.69
2018-07-01T04:53:15.942Z,60.98
2018-07-01T04:54:15.898Z,59.73
2018-07-01T04:55:15.930Z,59.83
2018-07-01T04:56:15.826Z,59.86
2018-07-01T04:57:15.785Z,60.24
2018-07-01T04:58:15.715Z,60.14
2018-07-01T04:59:15.668Z,61.40
2018-07-01T05:00:15.622Z,59.95
2018-07-01T05:01:15.583Z,60.63
2018-07-01T05:02:15.657Z,60.72
2018-07-01T05:03:15.482Z,60.14
2018-07-01T05:04:15.437Z,60.34
2018-07-01T05:05:15.407Z,60.05
2018-07-01T05:06:15.347Z,59.66
2018-07-01T05:07:15.338Z,59.41
2018-07-01T05:08:15.251Z,59.47
2018-07-01T05:09:15.218Z,59.22
2018-07-01T05:10:15.162Z,60.14
2018-07-01T05:11:15.118Z,58.64
2018-07-01T05:12:15.073Z,59.31
2018-07-01T05:13:15.052Z,57.00
2018-07-01T05:14:14.978Z,56.52
2018-07-01T05:15:14.933Z,55.59
2018-07-01T05:16:14.890Z,56.84
2018-07-01T05:17:14.925Z,58.09
2018-07-01T05:18:14.823Z,59.24
2018-07-01T05:19:14.752Z,57.03
2018-07-01T05:20:14.711Z,57.32
2018-07-01T05:21:14.669Z,57.99
2018-07-01T05:22:14.615Z,57.22
2018-07-01T05:23:14.593Z,55.01
2018-07-01T05:24:14.555Z,55.23
2018-07-01T05:25:14.481Z,54.08
2018-07-01T05:26:14.435Z,55.23
2018-07-01T05:27:14.391Z,53.98
2018-07-01T05:28:14.371Z,55.04
2018-07-01T05:29:14.298Z,56.96
2018-07-01T05:30:14.255Z,56.96
2018-07-01T05:31:14.209Z,55.90
2018-07-01T05:32:14.177Z,56.20
2018-07-01T05:33:14.157Z,55.23
2018-07-01T05:34:14.083Z,54.36
2018-07-01T05:35:14.031Z,55.35
2018-07-01T05:36:13.985Z,54.46
2018-07-01T05:37:13.940Z,54.39
2018-07-01T05:38:13.917Z,54.10
2018-07-01T05:39:13.853Z,54.00
2018-07-01T05:40:13.807Z,54.78
2018-07-01T05:41:13.760Z,54.20
2018-07-01T05:42:13.714Z,54.10
2018-07-01T05:43:13.695Z,54.10
2018-07-01T05:44:13.628Z,55.65
2018-07-01T05:45:13.582Z,56.99
2018-07-01T05:46:13.537Z,56.60
2018-07-01T05:47:13.494Z,54.87
2018-07-01T05:48:13.472Z,55.45
2018-07-01T05:49:13.404Z,55.55
2018-07-01T05:50:13.369Z,55.26
2018-07-01T05:51:13.313Z,53.45
2018-07-01T05:52:13.267Z,53.84
2018-07-01T05:53:13.246Z,54.90
2018-07-01T05:54:13.180Z,54.22
2018-07-01T05:55:13.134Z,53.94
2018-07-01T05:56:13.094Z,52.78
2018-07-01T05:57:13.109Z,52.49
2018-07-01T05:58:13.042Z,52.87
2018-07-01T05:59:12.956Z,53.94
2018-07-01T06:00:12.917Z,54.06
2018-07-01T06:01:12.866Z,53.00
2018-07-01T06:02:12.822Z,52.91
2018-07-01T06:03:12.803Z,52.61
2018-07-01T06:04:12.732Z,52.81
2018-07-01T06:05:12.694Z,53.00
2018-07-01T06:06:12.645Z,53.70
2018-07-01T06:07:12.601Z,51.77
2018-07-01T06:08:12.581Z,52.83
2018-07-01T06:09:12.512Z,52.64
2018-07-01T06:10:12.470Z,52.09
2018-07-01T06:11:12.422Z,52.57
2018-07-01T06:12:12.380Z,52.67
2018-07-01T06:13:12.364Z,51.89
2018-07-01T06:14:12.294Z,51.70
2018-07-01T06:15:12.248Z,53.15
2018-07-01T06:16:12.203Z,52.19
2018-07-01T06:17:12.162Z,51.99
2018-07-01T06:18:12.140Z,49.77
2018-07-01T06:19:12.073Z,51.12
2018-07-01T06:20:12.029Z,51.51
2018-07-01T06:21:11.983Z,52.79
2018-07-01T06:22:11.945Z,51.34
2018-07-01T06:23:11.918Z,50.28
2018-07-01T06:24:11.852Z,50.47
2018-07-01T06:25:11.806Z,50.28
2018-07-01T06:26:11.763Z,51.56
2018-07-01T06:27:11.720Z,50.01
2018-07-01T06:28:11.697Z,49.82
2018-07-01T06:29:11.636Z,50.21
2018-07-01T06:30:11.589Z,49.53
2018-07-01T06:31:11.547Z,48.47
2018-07-01T06:32:11.522Z,47.50
2018-07-01T06:33:11.486Z,46.92
2018-07-01T06:34:11.414Z,46.73
2018-07-01T06:35:11.368Z,48.18
2018-07-01T06:36:11.328Z,47.99
2018-07-01T06:37:11.282Z,47.80
2018-07-01T06:38:11.281Z,47.72
2018-07-01T06:39:11.194Z,48.11
2018-07-01T06:40:11.156Z,46.95
2018-07-01T06:41:11.110Z,46.75
2018-07-01T06:42:11.069Z,46.56
2018-07-01T06:43:11.021Z,48.21
2018-07-01T06:44:11.007Z,46.37
2018-07-01T06:45:10.936Z,47.05
2018-07-01T06:46:10.902Z,48.30
2018-07-01T06:47:10.850Z,47.91
2018-07-01T06:48:10.807Z,48.97
2018-07-01T06:49:10.789Z,47.02
2018-07-01T06:50:10.720Z,48.47
2018-07-01T06:51:10.678Z,48.08
2018-07-01T06:52:10.633Z,50.23
2018-07-01T06:53:10.590Z,51.01
2018-07-01T06:54:10.574Z,48.08
2018-07-01T06:55:10.506Z,49.34
2018-07-01T06:56:10.471Z,49.53
2018-07-01T06:57:10.479Z,49.92
2018-07-01T06:58:10.376Z,50.21
2018-07-01T06:59:10.400Z,48.21
2018-07-01T07:00:10.288Z,47.81
2018-07-01T07:01:10.244Z,47.63
2018-07-01T07:02:10.203Z,48.79
2018-07-01T07:03:10.158Z,48.49
2018-07-01T07:04:10.142Z,48.01
2018-07-01T07:05:10.078Z,48.69
2018-07-01T07:06:10.033Z,48.01
2018-07-01T07:07:09.989Z,43.95
2018-07-01T07:08:10.060Z,45.40
2018-07-01T07:09:09.932Z,45.21
2018-07-01T07:10:09.863Z,45.50
2018-07-01T07:11:09.813Z,43.85
2018-07-01T07:12:09.773Z,44.24
2018-07-01T07:13:09.729Z,42.99
2018-07-01T07:14:09.711Z,45.42
2018-07-01T07:15:09.651Z,44.56
2018-07-01T07:16:09.617Z,44.17
2018-07-01T07:17:09.555Z,43.78
2018-07-01T07:18:09.516Z,44.05
2018-07-01T07:19:09.493Z,43.76
2018-07-01T07:20:09.429Z,43.08
2018-07-01T07:21:09.386Z,43.76
2018-07-01T07:22:09.347Z,40.67
2018-07-01T07:23:09.303Z,40.77
2018-07-01T07:24:09.285Z,40.57
2018-07-01T07:25:09.215Z,42.12
2018-07-01T07:26:09.170Z,41.83
2018-07-01T07:27:09.130Z,39.51
2018-07-01T07:28:09.085Z,39.04
2018-07-01T07:29:09.067Z,37.98
2018-07-01T07:30:09.001Z,40.20
2018-07-01T07:31:08.959Z,39.92
2018-07-01T07:32:08.918Z,40.40
2018-07-01T07:33:08.871Z,39.82
2018-07-01T07:34:08.855Z,40.40
2018-07-01T07:35:08.785Z,40.67
2018-07-01T07:36:08.743Z,40.86
2018-07-01T07:37:08.697Z,39.12
2018-07-01T07:38:08.660Z,38.71
2018-07-01T07:39:08.634Z,39.97
2018-07-01T07:40:08.573Z,41.25
2018-07-01T07:41:08.546Z,39.90
2018-07-01T07:42:08.505Z,40.09
2018-07-01T07:43:08.441Z,38.93
2018-07-01T07:44:08.423Z,38.16
2018-07-01T07:45:08.367Z,38.83
2018-07-01T07:46:08.317Z,38.56
2018-07-01T07:47:08.270Z,37.79
2018-07-01T07:48:08.229Z,38.85
2018-07-01T07:49:08.206Z,39.72
2018-07-01T07:50:08.141Z,38.46
2018-07-01T07:51:08.097Z,37.12
2018-07-01T07:52:08.105Z,36.03
2018-07-01T07:53:08.023Z,36.63
2018-07-01T07:54:07.995Z,36.63
2018-07-01T07:55:07.931Z,35.74
2018-07-01T07:56:07.883Z,36.52
2018-07-01T07:57:07.842Z,38.18
2018-07-01T07:58:07.797Z,38.85
2018-07-01T07:59:07.778Z,37.98
2018-07-01T08:00:07.715Z,37.21
2018-07-01T08:01:07.667Z,35.95
2018-07-01T08:02:07.743Z,35.57
2018-07-01T08:03:07.581Z,38.46
2018-07-01T08:04:07.561Z,37.12
2018-07-01T08:05:07.493Z,35.47
2018-07-01T08:06:07.456Z,36.24
2018-07-01T08:07:07.412Z,36.15
2018-07-01T08:08:07.372Z,36.72
2018-07-01T08:09:07.332Z,38.76
2018-07-01T08:10:07.307Z,39.36
2018-07-01T08:11:07.244Z,38.66
2018-07-01T08:12:07.195Z,38.08
2018-07-01T08:13:07.183Z,36.65
2018-07-01T08:14:07.110Z,35.88
2018-07-01T08:15:07.097Z,35.18
2018-07-01T08:16:07.023Z,37.21
2018-07-01T08:17:06.984Z,38.08
2018-07-01T08:18:06.941Z,38.37
2018-07-01T08:19:06.897Z,38.08
2018-07-01T08:20:06.877Z,37.79
2018-07-01T08:21:06.811Z,39.04
2018-07-01T08:22:06.768Z,38.00
2018-07-01T08:23:06.728Z,37.50
2018-07-01T08:24:06.683Z,36.34
2018-07-01T08:25:06.665Z,36.44
2018-07-01T08:26:06.601Z,37.30
2018-07-01T08:27:06.559Z,37.12
2018-07-01T08:28:06.513Z,35.95
2018-07-01T08:29:06.469Z,35.28
2018-07-01T08:30:06.450Z,35.86
2018-07-01T08:31:06.381Z,36.82
2018-07-01T08:32:06.347Z,38.18
2018-07-01T08:33:06.295Z,36.82
2018-07-01T08:34:06.258Z,36.24
2018-07-01T08:35:06.233Z,34.21
2018-07-01T08:36:13.852Z,34.02
2018-07-01T08:37:06.125Z,33.92
2018-07-01T08:38:06.083Z,36.34
2018-07-01T08:39:06.041Z,37.02
2018-07-01T08:40:06.046Z,34.21
2018-07-01T08:41:05.957Z,34.79
2018-07-01T08:42:05.910Z,34.12
2018-07-01T08:43:05.873Z,34.12
2018-07-01T08:44:05.825Z,33.63
2018-07-01T08:45:05.803Z,34.70
2018-07-01T08:46:05.738Z,34.50
2018-07-01T08:47:05.700Z,34.89
2018-07-01T08:48:05.653Z,36.34
2018-07-01T08:49:05.614Z,34.50
2018-07-01T08:50:05.587Z,35.18
2018-07-01T08:51:05.529Z,36.72
2018-07-01T08:52:05.480Z,36.63
2018-07-01T08:53:05.433Z,37.60
2018-07-01T08:54:05.392Z,40.11
2018-07-01T08:55:05.375Z,39.82
2018-07-01T08:56:05.309Z,37.21
2018-07-01T08:57:05.261Z,36.46
2018-07-01T08:58:05.221Z,37.52
2018-07-01T08:59:05.181Z,37.62
2018-07-01T09:00:05.179Z,37.32
2018-07-01T09:01:05.094Z,37.42
2018-07-01T09:02:05.047Z,36.55
2018-07-01T09:03:05.008Z,37.88
2018-07-01T09:04:04.966Z,36.82
2018-07-01T09:05:04.942Z,37.98
2018-07-01T09:06:04.885Z,38.85
2018-07-01T09:07:04.834Z,38.68
2018-07-01T09:08:04.793Z,38.76
2018-07-01T09:09:04.748Z,39.82
2018-07-01T09:10:04.728Z,38.85
2018-07-01T09:11:04.717Z,38.66
2018-07-01T09:12:04.621Z,38.08
2018-07-01T09:13:04.576Z,38.20
2018-07-01T09:14:04.533Z,37.90
2018-07-01T09:15:04.514Z,41.46
2018-07-01T09:16:04.445Z,41.77
2018-07-01T09:17:04.560Z,39.04
2018-07-01T09:18:04.364Z,38.56
2018-07-01T09:19:04.327Z,38.37
2018-07-01T09:20:04.308Z,37.81
2018-07-01T09:21:04.836Z,38.39
2018-07-01T09:22:04.215Z,35.97
2018-07-01T09:23:04.162Z,34.62
2018-07-01T09:24:04.106Z,34.60
2018-07-01T09:25:04.088Z,34.50
2018-07-01T09:26:04.068Z,35.18
2018-07-01T09:27:03.979Z,35.08
2018-07-01T09:28:03.944Z,34.87
2018-07-01T09:29:03.894Z,35.36
2018-07-01T09:30:03.881Z,35.16
2018-07-01T09:31:03.806Z,34.47
2018-07-01T09:32:03.766Z,34.47
2018-07-01T09:33:03.721Z,35.84
2018-07-01T09:34:03.677Z,35.84
2018-07-01T09:35:03.672Z,37.29
2018-07-01T09:36:03.590Z,38.35
2018-07-01T09:37:03.551Z,36.82
2018-07-01T09:38:03.507Z,37.21
2018-07-01T09:39:03.463Z,34.29
2018-07-01T09:40:03.418Z,34.48
2018-07-01T09:41:03.398Z,34.10
2018-07-01T09:42:03.332Z,34.78
2018-07-01T09:43:03.288Z,34.99
2018-07-01T09:44:03.276Z,33.89
2018-07-01T09:45:03.200Z,34.76
2018-07-01T09:46:03.184Z,36.03
2018-07-01T09:47:03.118Z,36.61
2018-07-01T09:48:03.071Z,36.22
2018-07-01T09:49:03.032Z,35.45
2018-07-01T09:50:02.986Z,35.37
2018-07-01T09:51:02.969Z,34.21
2018-07-01T09:52:02.904Z,33.92
2018-07-01T09:53:02.855Z,36.53
2018-07-01T09:54:02.812Z,35.29
2018-07-01T09:55:02.770Z,35.20
2018-07-01T09:56:02.750Z,33.17
2018-07-01T09:57:02.686Z,33.75
2018-07-01T09:58:02.645Z,33.55
2018-07-01T09:59:02.597Z,33.07
2018-07-01T10:00:02.560Z,32.97
2018-07-01T10:01:02.581Z,32.38
2018-07-01T10:02:02.473Z,32.38
2018-07-01T10:03:02.428Z,31.88
2018-07-01T10:04:02.383Z,32.24
2018-07-01T10:05:02.354Z,32.15
2018-07-01T10:06:02.320Z,33.80
2018-07-01T10:07:02.255Z,34.08
2018-07-01T10:08:02.212Z,34.08
2018-07-01T10:09:02.178Z,34.29
2018-07-01T10:10:02.128Z,34.10
2018-07-01T10:11:02.104Z,34.99
2018-07-01T10:12:02.111Z,33.14
2018-07-01T10:13:01.994Z,32.75
2018-07-01T10:14:01.951Z,33.92
2018-07-01T10:15:01.913Z,33.63
2018-07-01T10:16:01.901Z,34.60
2018-07-01T10:17:01.823Z,36.24
2018-07-01T10:18:01.781Z,36.05
2018-07-01T10:19:01.752Z,34.23
2018-07-01T10:20:01.693Z,34.13
2018-07-01T10:21:01.674Z,33.26
2018-07-01T10:22:01.607Z,33.17
2018-07-01T10:23:01.569Z,33.95
2018-07-01T10:24:01.526Z,33.86
2018-07-01T10:25:01.481Z,33.37
2018-07-01T10:26:01.457Z,32.49
2018-07-01T10:27:01.398Z,33.84
2018-07-01T10:28:01.352Z,33.36
2018-07-01T10:29:01.314Z,33.44
2018-07-01T10:30:01.262Z,32.97
2018-07-01T10:31:01.247Z,32.09
2018-07-01T10:32:01.183Z,32.57
2018-07-01T10:33:01.162Z,31.68
2018-07-01T10:34:01.093Z,32.56
2018-07-01T10:35:01.048Z,33.72
2018-07-01T10:36:01.031Z,36.53
2018-07-01T10:37:00.961Z,33.92
2018-07-01T10:38:00.921Z,34.12
2018-07-01T10:39:00.891Z,34.12
2018-07-01T10:40:00.835Z,33.54
2018-07-01T10:41:00.818Z,33.83
2018-07-01T10:42:00.750Z,34.41
2018-07-01T10:43:00.714Z,34.52
2018-07-01T10:44:00.681Z,34.52
2018-07-01T10:45:00.620Z,34.52
2018-07-01T10:46:00.601Z,33.26
2018-07-01T10:47:00.536Z,34.05
2018-07-01T10:48:00.488Z,33.95
2018-07-01T10:49:00.450Z,34.54
2018-07-01T10:50:00.404Z,32.51
2018-07-01T10:51:00.386Z,32.99
2018-07-01T10:52:00.317Z,33.67
2018-07-01T10:53:00.278Z,34.55
2018-07-01T10:54:00.233Z,34.07
2018-07-01T10:55:00.189Z,34.92
2018-07-01T10:56:00.172Z,33.69
2018-07-01T10:57:00.104Z,33.69
2018-07-01T10:58:00.084Z,32.89
2018-07-01T10:59:00.025Z,33.18
2018-07-01T10:59:59.978Z,33.95
2018-07-01T11:00:59.965Z,32.42
2018-07-01T11:01:59.895Z,33.01
2018-07-01T11:02:59.849Z,33.20
2018-07-01T11:03:59.811Z,33.97
2018-07-01T11:04:59.765Z,34.45
2018-07-01T11:05:59.832Z,32.14
2018-07-01T11:06:59.680Z,32.23
2018-07-01T11:07:59.637Z,31.54
2018-07-01T11:08:59.598Z,31.91
2018-07-01T11:09:59.554Z,32.09
2018-07-01T11:10:59.552Z,32.28
2018-07-01T11:11:59.476Z,33.15
2018-07-01T11:12:59.425Z,34.41
2018-07-01T11:13:59.382Z,32.96
2018-07-01T11:14:59.348Z,33.04
2018-07-01T11:15:59.298Z,32.92
2018-07-01T11:16:59.279Z,33.22
2018-07-01T11:17:59.211Z,34.08
2018-07-01T11:18:59.176Z,34.38
2018-07-01T11:19:59.128Z,34.00
2018-07-01T11:20:59.087Z,33.80
2018-07-01T11:21:59.069Z,33.80
2018-07-01T11:22:58.997Z,34.18
2018-07-01T11:23:58.957Z,35.14
2018-07-01T11:24:58.910Z,35.84
2018-07-01T11:25:58.866Z,34.68
2018-07-01T11:26:58.895Z,34.97
2018-07-01T11:27:58.785Z,34.10
2018-07-01T11:28:58.743Z,34.58
2018-07-01T11:29:58.702Z,34.79
2018-07-01T11:30:58.652Z,34.41
2018-07-01T11:31:58.640Z,34.31
2018-07-01T11:32:58.566Z,34.21
2018-07-01T11:33:58.522Z,34.20
2018-07-01T11:34:58.479Z,34.10
2018-07-01T11:35:58.433Z,34.20
2018-07-01T11:36:58.415Z,33.72
2018-07-01T11:37:58.347Z,34.28
2018-07-01T11:38:58.311Z,34.38
2018-07-01T11:39:58.262Z,34.66
2018-07-01T11:40:58.214Z,34.47
2018-07-01T11:41:58.204Z,34.76
2018-07-01T11:42:58.131Z,35.36
2018-07-01T11:43:58.088Z,37.48
2018-07-01T11:44:58.045Z,37.10
2018-07-01T11:45:58.000Z,37.21
2018-07-01T11:46:57.981Z,37.40
2018-07-01T11:47:57.917Z,36.72
2018-07-01T11:48:57.872Z,35.76
2018-07-01T11:49:57.827Z,35.18
2018-07-01T11:50:57.780Z,34.99
2018-07-01T11:51:57.769Z,37.88
2018-07-01T11:52:57.695Z,36.72
2018-07-01T11:53:57.662Z,35.37
2018-07-01T11:54:57.616Z,34.99
2018-07-01T11:55:57.564Z,34.97
2018-07-01T11:56:57.549Z,35.45
2018-07-01T11:57:57.476Z,35.18
2018-07-01T11:58:57.434Z,36.15
2018-07-01T11:59:57.438Z,34.78
2018-07-01T12:00:57.351Z,35.55
2018-07-01T12:01:57.391Z,35.45
2018-07-01T12:02:57.261Z,35.45
2018-07-01T12:03:57.215Z,34.58
2018-07-01T12:05:16.207Z,36.13
2018-07-01T12:05:57.135Z,38.06
2018-07-01T12:06:57.106Z,36.80
2018-07-01T12:07:57.041Z,36.22
2018-07-01T12:08:57.009Z,36.61
2018-07-01T12:09:56.955Z,36.34
2018-07-01T12:10:56.910Z,36.42
2018-07-01T12:11:56.894Z,37.60
2018-07-01T12:12:56.825Z,37.21
2018-07-01T12:13:56.782Z,35.95
2018-07-01T12:14:56.735Z,36.13
2018-07-01T12:15:56.703Z,34.97
2018-07-01T12:16:56.677Z,36.13
2018-07-01T12:17:56.608Z,37.19
2018-07-01T12:18:56.567Z,37.48
2018-07-01T12:19:56.519Z,36.80
2018-07-01T12:20:56.480Z,36.90
2018-07-01T12:21:56.458Z,36.22
2018-07-01T12:22:56.389Z,36.90
2018-07-01T12:23:56.345Z,39.70
2018-07-01T12:24:56.301Z,39.03
2018-07-01T12:25:56.258Z,38.74
2018-07-01T12:26:56.239Z,37.88
2018-07-01T12:27:56.171Z,38.28
2018-07-01T12:28:56.126Z,37.21
2018-07-01T12:29:56.094Z,39.04
2018-07-01T12:30:56.036Z,40.50
2018-07-01T12:31:56.017Z,37.98
2018-07-01T12:32:55.950Z,39.04
2018-07-01T12:33:55.914Z,38.85
2018-07-01T12:34:55.864Z,37.79
2018-07-01T12:35:55.820Z,36.92
2018-07-01T12:36:55.803Z,36.92
2018-07-01T12:37:55.739Z,36.80
2018-07-01T12:38:55.691Z,37.38
2018-07-01T12:39:55.645Z,37.58
2018-07-01T12:40:55.603Z,37.77
2018-07-01T12:41:55.605Z,37.77
2018-07-01T12:42:55.515Z,38.16
2018-07-01T12:43:55.472Z,39.22
2018-07-01T12:44:55.430Z,37.10
2018-07-01T12:45:55.384Z,37.19
2018-07-01T12:46:55.366Z,38.06
2018-07-01T12:47:55.302Z,37.96
2018-07-01T12:48:55.256Z,41.46
2018-07-01T12:49:55.207Z,37.58
2018-07-01T12:50:55.164Z,36.71
2018-07-01T12:51:55.119Z,36.90